CheckWX is a tool to help pilots better visualize weather data.  It is not intended as a substitute for an official pre-flight weather briefing.

22:26:42 UTC

LZSL METAR
Sliač Airport
Sliač, Slovakia (Slovak Republic)
Current

27 mins ago

LZSL 042200Z 07005KT CAVOK 04/M04 Q1026
Observed
Apr-4 @ 22:00 UTC
Wind
  • 070° at 5 KTS
Visibility
10,000+ meters
Flight Rules
VFR
Cloud Levels
  • Clear skies
Temperature
C / 39°F
Dewpoint
-4°C / 25°F
Humidity
56%
Altimeter
30.3" Hg
Pressure
1025.92 hPa
Previous

57 mins ago

LZSL 042130Z 07005KT CAVOK 05/M04 Q1026
Observed
Apr-4 @ 21:30 UTC
Wind
  • 070° at 5 KTS
Visibility
10,000+ meters
Flight Rules
VFR
Cloud Levels
  • Clear skies
Temperature
C / 41°F
Dewpoint
-4°C / 25°F
Humidity
53%
Altimeter
30.3" Hg
Pressure
1025.92 hPa
Previous

1 hour ago

LZSL 042100Z 05005KT CAVOK 06/M04 Q1026
Observed
Apr-4 @ 21:00 UTC
Wind
  • 050° at 5 KTS
Visibility
10,000+ meters
Flight Rules
VFR
Cloud Levels
  • Clear skies
Temperature
C / 43°F
Dewpoint
-4°C / 25°F
Humidity
49%
Altimeter
30.3" Hg
Pressure
1025.92 hPa